Orbital elements of COSMOS 2251 DEB
| Launched | 15 June 1993 |
| Flight ended | – |
| Launch site | Plesetsk Missile and Space Complex, Russia |
| Owner | Commonwealth of Independent States (former USSR) |
| NORAD ID | 34307 |
| Date fetched |
Epoch osculation |
Inc. [°] |
Ecc. | RA asc node [hr] |
Arg Peri. [°] |
Mean anom [°] |
Mean motion [rev/day] |
Abs. mag |
| Date fetched |
Epoch osculation |
Inc. [°] |
Ecc. | RA asc node [hr] |
Arg Peri. [°] |
Mean anom [°] |
Mean motion [rev/day] |
Abs. mag |
| 2026 May 04 17:57 | 2026 Apr 30 09:17:56 | 74.0516 | 0.03934 | 6.0389 | 251.2261 | 272.8147 | 13.54558 | – |
| 2026 May 03 17:57 | 2026 Apr 30 09:17:56 | 74.0516 | 0.03934 | 6.0389 | 251.2261 | 272.8147 | 13.54558 | – |
| 2026 May 02 17:57 | 2026 Apr 30 09:17:56 | 74.0516 | 0.03934 | 6.0389 | 251.2261 | 272.8147 | 13.54558 | – |
| 2026 May 01 17:56 | 2026 Apr 30 09:17:56 | 74.0516 | 0.03934 | 6.0389 | 251.2261 | 272.8147 | 13.54558 | – |
| 2026 Apr 30 17:56 | 2026 Apr 30 09:17:56 | 74.0516 | 0.03934 | 6.0389 | 251.2261 | 272.8147 | 13.54558 | – |
| 2026 Apr 29 17:57 | 2026 Apr 24 09:41:34 | 74.0510 | 0.03934 | 6.6794 | 262.1096 | 272.8147 | 13.54558 | – |
| 2026 Apr 28 17:56 | 2026 Apr 24 09:41:34 | 74.0510 | 0.03934 | 6.6794 | 262.1096 | 272.8147 | 13.54558 | – |
| 2026 Apr 27 17:58 | 2026 Apr 24 09:41:34 | 74.0510 | 0.03934 | 6.6794 | 262.1096 | 272.8147 | 13.54558 | – |
| 2026 Apr 26 17:58 | 2026 Apr 24 09:41:34 | 74.0510 | 0.03934 | 6.6794 | 262.1096 | 272.8147 | 13.54558 | – |
| 2026 Apr 25 17:58 | 2026 Apr 24 09:41:34 | 74.0510 | 0.03934 | 6.6794 | 262.1096 | 272.8147 | 13.54558 | – |
| 2026 Apr 24 17:59 | 2026 Apr 24 09:41:34 | 74.0510 | 0.03934 | 6.6794 | 262.1096 | 272.8147 | 13.54558 | – |
| 2026 Apr 23 17:57 | 2026 Apr 18 23:41:03 | 74.0505 | 0.03934 | 7.2593 | 271.9636 | 272.8147 | 13.54558 | – |
| 2026 Apr 22 17:57 | 2026 Apr 18 23:41:03 | 74.0505 | 0.03934 | 7.2593 | 271.9636 | 272.8147 | 13.54558 | – |
| 2026 Apr 21 17:57 | 2026 Apr 18 23:41:03 | 74.0505 | 0.03934 | 7.2593 | 271.9636 | 272.8147 | 13.54558 | – |
| 2026 Apr 20 17:57 | 2026 Apr 18 23:41:03 | 74.0505 | 0.03934 | 7.2593 | 271.9636 | 272.8147 | 13.54558 | – |
| 2026 Apr 19 17:58 | 2026 Apr 18 23:41:03 | 74.0505 | 0.03934 | 7.2593 | 271.9636 | 272.8147 | 13.54558 | – |
| 2026 Apr 18 17:56 | 2026 Apr 12 19:31:57 | 74.0514 | 0.03933 | 7.9201 | 283.1965 | 272.8147 | 13.54558 | – |
| 2026 Apr 16 17:57 | 2026 Apr 12 19:31:57 | 74.0514 | 0.03933 | 7.9201 | 283.1965 | 272.8147 | 13.54558 | – |
| 2026 Apr 14 17:57 | 2026 Apr 12 19:31:57 | 74.0514 | 0.03933 | 7.9201 | 283.1965 | 272.8147 | 13.54558 | – |
| 2026 Apr 13 17:57 | 2026 Apr 12 19:31:57 | 74.0514 | 0.03933 | 7.9201 | 283.1965 | 272.8147 | 13.54558 | – |
| 2026 Apr 12 17:57 | 2026 Apr 08 01:19:10 | 74.0508 | 0.03933 | 8.4295 | 291.8537 | 272.8147 | 13.54558 | – |
| 2026 Apr 11 17:57 | 2026 Apr 08 01:19:10 | 74.0508 | 0.03933 | 8.4295 | 291.8537 | 272.8147 | 13.54558 | – |
| 2026 Apr 10 17:58 | 2026 Apr 08 01:19:10 | 74.0508 | 0.03933 | 8.4295 | 291.8537 | 272.8147 | 13.54558 | – |
| 2026 Apr 09 18:01 | 2026 Apr 08 01:19:10 | 74.0508 | 0.03933 | 8.4295 | 291.8537 | 272.8147 | 13.54558 | – |
| 2026 Apr 08 17:57 | 2026 Apr 08 01:19:10 | 74.0508 | 0.03933 | 8.4295 | 291.8537 | 272.8147 | 13.54558 | – |
| 2026 Apr 07 17:57 | 2026 Apr 01 21:13:58 | 74.0520 | 0.03932 | 9.0899 | 303.0788 | 272.8147 | 13.54558 | – |